createdAt,value
2023-04-25T04:37:15.968Z,99092.84
2023-04-25T04:40:18.846Z,99092.84
2023-04-25T04:43:21.412Z,99098.59
2023-04-25T04:46:25.823Z,99106.72
2023-04-25T04:49:28.628Z,99107.88
2023-04-25T04:52:33.787Z,99097.06
2023-04-25T04:55:36.555Z,99092.81
2023-04-25T04:58:39.378Z,99099.31
2023-04-25T05:01:42.151Z,99101.94
2023-04-25T05:04:44.789Z,99095.44
2023-04-25T05:07:47.686Z,99097.66
2023-04-25T05:10:50.301Z,99104.66
2023-04-25T05:13:53.754Z,99096.00
2023-04-25T05:16:57.191Z,99099.09
2023-04-25T05:20:00.234Z,99095.38
2023-04-25T05:23:02.870Z,99100.56
2023-04-25T05:26:05.443Z,99099.91
2023-04-25T05:29:08.108Z,99104.16
2023-04-25T05:32:10.809Z,99103.47
2023-04-25T05:35:13.502Z,99101.09
2023-04-25T05:38:16.253Z,99097.75
2023-04-25T05:41:18.829Z,99106.09
2023-04-25T05:44:21.376Z,99098.91
2023-04-25T05:47:23.983Z,99111.72
2023-04-25T05:50:26.944Z,99117.09
2023-04-25T05:53:39.999Z,99117.31
2023-04-25T05:56:42.519Z,99118.56
2023-04-25T05:59:45.111Z,99115.44
2023-04-25T06:02:47.844Z,99114.09
2023-04-25T06:05:50.766Z,99115.78
2023-04-25T06:08:56.138Z,99121.69
2023-04-25T06:12:02.745Z,99120.62
2023-04-25T06:15:16.466Z,99126.47
2023-04-25T06:18:29.109Z,99125.31
2023-04-25T06:21:32.657Z,99133.03
2023-04-25T06:24:35.787Z,99143.69
2023-04-25T06:27:38.556Z,99136.56
2023-04-25T06:30:41.597Z,99138.53
2023-04-25T06:33:44.173Z,99145.97
2023-04-25T06:36:46.857Z,99159.16
2023-04-25T06:39:49.442Z,99155.31
2023-04-25T06:42:52.033Z,99140.19
2023-04-25T06:45:55.860Z,99153.25
2023-04-25T06:48:58.393Z,99147.94
2023-04-25T06:52:00.886Z,99153.59
2023-04-25T06:55:03.995Z,99157.03
2023-04-25T06:58:06.569Z,99150.50
2023-04-25T07:01:09.131Z,99163.91
2023-04-25T07:04:12.934Z,99164.63
2023-04-25T07:07:15.602Z,99161.94
2023-04-25T07:10:21.909Z,99166.41
2023-04-25T07:13:24.339Z,99171.31
2023-04-25T07:16:27.377Z,99155.69
2023-04-25T07:19:30.951Z,99167.19
2023-04-25T07:22:33.911Z,99162.13
2023-04-25T07:25:36.418Z,99154.19
2023-04-25T07:28:39.011Z,99153.75
2023-04-25T07:31:41.599Z,99147.72
2023-04-25T07:34:44.260Z,99153.91
2023-04-25T07:37:46.869Z,99158.31
2023-04-25T07:40:50.388Z,99157.25
2023-04-25T07:43:59.121Z,99154.03
2023-04-25T07:47:04.286Z,99155.06
2023-04-25T07:50:07.888Z,99154.25
2023-04-25T07:53:10.698Z,99157.59
2023-04-25T07:56:13.338Z,99175.19
2023-04-25T07:59:16.067Z,99152.19
2023-04-25T08:02:18.650Z,99158.66
2023-04-25T08:05:22.944Z,99156.91
2023-04-25T08:08:26.138Z,99162.09
2023-04-25T08:11:28.793Z,99161.44
2023-04-25T08:14:36.751Z,99159.00
2023-04-25T08:17:39.613Z,99158.56
2023-04-25T08:20:42.320Z,99161.06
2023-04-25T08:23:44.876Z,99164.84
2023-04-25T08:26:47.421Z,99170.25
2023-04-25T08:29:50.249Z,99162.72
2023-04-25T08:32:52.794Z,99175.25
2023-04-25T08:35:55.911Z,99167.03
2023-04-25T08:38:59.518Z,99173.34
2023-04-25T08:42:03.138Z,99166.53
2023-04-25T08:45:07.233Z,99158.47
2023-04-25T08:48:14.420Z,99162.97
2023-04-25T08:51:23.265Z,99164.69
2023-04-25T08:54:34.394Z,99169.44
2023-04-25T08:57:39.382Z,99162.91
2023-04-25T09:00:42.082Z,99162.44
2023-04-25T09:03:46.049Z,99173.41
2023-04-25T09:06:49.094Z,99167.66
2023-04-25T09:09:51.643Z,99176.72
2023-04-25T09:13:27.436Z,99173.88
2023-04-25T09:16:30.057Z,99187.25
2023-04-25T09:22:39.871Z,99185.44
2023-04-25T09:25:44.485Z,99172.88
2023-04-25T09:28:49.053Z,99178.84
2023-04-25T09:31:51.817Z,99178.75
2023-04-25T09:34:55.834Z,99173.59
2023-04-25T09:37:58.425Z,99166.47
2023-04-25T09:41:01.914Z,99182.81
2023-04-25T09:44:04.939Z,99179.41
2023-04-25T09:47:12.310Z,99166.16
2023-04-25T09:50:16.439Z,99170.41
2023-04-25T09:53:18.928Z,99175.50
2023-04-25T09:56:21.605Z,99177.56
2023-04-25T09:59:24.240Z,99172.00
2023-04-25T10:02:27.771Z,99172.22
2023-04-25T10:05:31.362Z,99170.19
2023-04-25T10:08:37.308Z,99165.81
2023-04-25T10:11:39.859Z,99156.28
2023-04-25T10:14:42.407Z,99164.16
2023-04-25T10:17:45.076Z,99152.75
2023-04-25T10:20:47.672Z,99157.19
2023-04-25T10:23:50.645Z,99158.31
2023-04-25T10:26:53.432Z,99151.53
2023-04-25T10:30:06.232Z,99152.16
2023-04-25T10:33:19.791Z,99158.66
2023-04-25T10:36:23.769Z,99156.09
2023-04-25T10:39:28.318Z,99154.63
2023-04-25T10:42:31.159Z,99159.34
2023-04-25T10:45:54.797Z,99163.31
2023-04-25T10:49:01.532Z,99162.91
2023-04-25T10:52:26.743Z,99170.41
2023-04-25T10:55:29.373Z,99161.97
2023-04-25T10:58:32.207Z,99179.84
2023-04-25T11:01:40.156Z,99175.97
2023-04-25T11:08:06.226Z,99186.19
2023-04-25T11:11:20.752Z,99192.78
2023-04-25T11:14:23.550Z,99189.84
2023-04-25T11:17:26.778Z,99193.19
2023-04-25T11:20:29.966Z,99185.87
2023-04-25T11:23:32.652Z,99192.25
2023-04-25T11:26:35.240Z,99190.94
2023-04-25T11:29:38.024Z,99203.44
2023-04-25T11:32:42.858Z,99205.78
2023-04-25T11:35:45.415Z,99213.16
2023-04-25T11:38:47.964Z,99210.66
2023-04-25T11:41:51.185Z,99209.13
2023-04-25T11:44:54.038Z,99205.66
2023-04-25T11:47:57.033Z,99208.56
2023-04-25T11:51:02.067Z,99211.28
2023-04-25T11:54:04.598Z,99209.06
2023-04-25T11:57:07.897Z,99219.97
2023-04-25T12:00:18.104Z,99226.38
2023-04-25T12:03:21.612Z,99224.75
2023-04-25T12:06:30.262Z,99234.88
2023-04-25T12:09:33.909Z,99231.16
2023-04-25T12:12:36.816Z,99225.19
2023-04-25T12:15:41.873Z,99223.59
2023-04-25T12:18:44.423Z,99231.75
2023-04-25T12:21:57.368Z,99234.31
2023-04-25T12:25:02.138Z,99228.84
2023-04-25T12:28:20.802Z,99225.66
2023-04-25T12:31:23.854Z,99234.72
2023-04-25T12:34:26.449Z,99245.28
2023-04-25T12:37:29.895Z,99239.97
2023-04-25T12:40:32.716Z,99235.03
2023-04-25T12:43:35.699Z,99229.69
2023-04-25T12:46:38.977Z,99231.75
2023-04-25T12:49:41.736Z,99227.22
2023-04-25T12:52:45.139Z,99220.22
2023-04-25T12:55:47.925Z,99220.41
2023-04-25T12:58:51.025Z,99212.69
2023-04-25T13:01:54.201Z,99215.50
2023-04-25T13:04:56.858Z,99211.19
2023-04-25T13:08:00.496Z,99198.47
2023-04-25T13:11:03.134Z,99197.53
2023-04-25T13:14:05.999Z,99198.97
2023-04-25T13:17:08.516Z,99196.97
2023-04-25T13:20:11.507Z,99207.87
2023-04-25T13:23:14.122Z,99201.66
2023-04-25T13:26:17.399Z,99185.53
2023-04-25T13:29:20.110Z,99193.50
2023-04-25T13:32:22.678Z,99200.06
2023-04-25T13:35:25.768Z,99206.50
2023-04-25T13:38:28.343Z,99196.41
2023-04-25T13:41:31.021Z,99200.75
2023-04-25T13:44:33.677Z,99192.69
2023-04-25T13:47:36.448Z,99186.06
2023-04-25T13:50:39.431Z,99189.91
2023-04-25T13:53:42.174Z,99188.62
2023-04-25T13:56:44.768Z,99190.47
2023-04-25T13:59:47.686Z,99194.72
2023-04-25T14:02:50.936Z,99190.66
2023-04-25T14:05:53.644Z,99176.63
2023-04-25T14:08:57.732Z,99183.94
2023-04-25T14:12:00.589Z,99172.72
2023-04-25T14:15:03.434Z,99171.31
2023-04-25T14:18:07.537Z,99187.19
2023-04-25T14:21:11.028Z,99178.69
2023-04-25T14:24:14.492Z,99179.13
2023-04-25T14:27:17.346Z,99182.06
2023-04-25T14:30:20.363Z,99182.56
2023-04-25T14:33:23.183Z,99181.06
2023-04-25T14:36:27.535Z,99179.06
2023-04-25T14:39:30.094Z,99182.41
2023-04-25T14:42:34.097Z,99182.31
2023-04-25T14:45:36.706Z,99183.53
2023-04-25T14:48:39.479Z,99187.56
2023-04-25T14:51:42.048Z,99172.06
2023-04-25T14:54:44.580Z,99174.88
2023-04-25T14:57:47.149Z,99174.97
2023-04-25T15:00:49.837Z,99175.28
2023-04-25T15:03:53.289Z,99183.44
2023-04-25T15:06:56.536Z,99190.09
2023-04-25T15:09:59.180Z,99183.44
2023-04-25T15:13:01.910Z,99180.53
2023-04-25T15:16:04.763Z,99184.09
2023-04-25T15:19:07.637Z,99180.66
